sensor_id;sensor_type;location;lat;lon;timestamp;pressure;altitude;pressure_sealevel;temperature;humidity
71996;BME280;59862;47.732;7.346;2023-12-04T15:33:18;97194.39;;;0.37;100.00
71996;BME280;59862;47.732;7.346;2023-12-04T15:35:47;97199.25;;;0.32;100.00
71996;BME280;59862;47.732;7.346;2023-12-04T15:38:14;97191.95;;;0.30;100.00
71996;BME280;59862;47.732;7.346;2023-12-04T15:40:42;97189.65;;;0.31;100.00
71996;BME280;59862;47.732;7.346;2023-12-04T15:43:10;97184.05;;;0.30;100.00
71996;BME280;59862;47.732;7.346;2023-12-04T15:45:37;97169.59;;;0.34;100.00
71996;BME280;59862;47.732;7.346;2023-12-04T15:48:05;97167.86;;;0.38;100.00
71996;BME280;59862;47.732;7.346;2023-12-04T15:50:34;97169.80;;;0.36;100.00
71996;BME280;59862;47.732;7.346;2023-12-04T15:53:01;97163.42;;;0.39;100.00
71996;BME280;59862;47.732;7.346;2023-12-04T15:55:29;97164.05;;;0.37;100.00
71996;BME280;59862;47.732;7.346;2023-12-04T15:57:57;97160.69;;;0.35;100.00
71996;BME280;59862;47.732;7.346;2023-12-04T16:00:25;97153.94;;;0.46;100.00
71996;BME280;59862;47.732;7.346;2023-12-04T16:02:53;97144.86;;;0.44;100.00
71996;BME280;59862;47.732;7.346;2023-12-04T16:05:21;97142.02;;;0.42;100.00
71996;BME280;59862;47.732;7.346;2023-12-04T16:07:49;97136.84;;;0.50;100.00
71996;BME280;59862;47.732;7.346;2023-12-04T16:10:16;97140.36;;;0.41;100.00
71996;BME280;59862;47.732;7.346;2023-12-04T16:12:44;97129.98;;;0.53;100.00
71996;BME280;59862;47.732;7.346;2023-12-04T16:15:12;97125.48;;;0.40;100.00
71996;BME280;59862;47.732;7.346;2023-12-04T16:17:40;97129.65;;;0.52;100.00
71996;BME280;59862;47.732;7.346;2023-12-04T16:20:08;97128.08;;;0.59;100.00
71996;BME280;59862;47.732;7.346;2023-12-04T16:22:42;97118.77;;;0.64;100.00
71996;BME280;59862;47.732;7.346;2023-12-04T16:25:10;97124.17;;;0.63;100.00
71996;BME280;59862;47.732;7.346;2023-12-04T16:27:44;97120.04;;;0.60;100.00
71996;BME280;59862;47.732;7.346;2023-12-04T16:30:12;97106.11;;;0.68;100.00
71996;BME280;59862;47.732;7.346;2023-12-04T16:32:40;97110.48;;;0.73;100.00
71996;BME280;59862;47.732;7.346;2023-12-04T16:35:07;97093.31;;;0.73;100.00
71996;BME280;59862;47.732;7.346;2023-12-04T16:37:35;97098.59;;;0.73;100.00
71996;BME280;59862;47.732;7.346;2023-12-04T16:40:04;97094.59;;;0.69;100.00
71996;BME280;59862;47.732;7.346;2023-12-04T16:42:32;97087.98;;;0.69;100.00
71996;BME280;59862;47.732;7.346;2023-12-04T16:44:59;97098.39;;;0.70;100.00
71996;BME280;59862;47.732;7.346;2023-12-04T16:47:27;97091.59;;;0.68;100.00
71996;BME280;59862;47.732;7.346;2023-12-04T16:49:56;97090.72;;;0.77;100.00
71996;BME280;59862;47.732;7.346;2023-12-04T16:52:24;97089.94;;;0.81;100.00
71996;BME280;59862;47.732;7.346;2023-12-04T16:54:51;97073.52;;;0.73;100.00
71996;BME280;59862;47.732;7.346;2023-12-04T16:57:19;97084.45;;;0.78;100.00
71996;BME280;59862;47.732;7.346;2023-12-04T16:59:46;97092.32;;;0.74;100.00
71996;BME280;59862;47.732;7.346;2023-12-04T17:02:14;97082.17;;;0.79;100.00
71996;BME280;59862;47.732;7.346;2023-12-04T17:04:41;97088.52;;;0.72;100.00
71996;BME280;59862;47.732;7.346;2023-12-04T17:07:09;97079.13;;;0.74;100.00
71996;BME280;59862;47.732;7.346;2023-12-04T17:09:36;97084.61;;;0.76;100.00
71996;BME280;59862;47.732;7.346;2023-12-04T17:12:05;97077.25;;;0.80;100.00
71996;BME280;59862;47.732;7.346;2023-12-04T17:14:33;97074.84;;;0.73;100.00
71996;BME280;59862;47.732;7.346;2023-12-04T17:17:00;97066.13;;;0.76;100.00
71996;BME280;59862;47.732;7.346;2023-12-04T17:19:28;97061.53;;;0.78;100.00
71996;BME280;59862;47.732;7.346;2023-12-04T17:21:58;97071.41;;;0.76;100.00
71996;BME280;59862;47.732;7.346;2023-12-04T17:24:26;97057.67;;;0.73;100.00
71996;BME280;59862;47.732;7.346;2023-12-04T17:26:54;97051.52;;;0.68;100.00
71996;BME280;59862;47.732;7.346;2023-12-04T17:29:21;97061.05;;;0.79;100.00
71996;BME280;59862;47.732;7.346;2023-12-04T17:31:49;97053.41;;;0.76;100.00
71996;BME280;59862;47.732;7.346;2023-12-04T17:34:16;97042.67;;;0.73;100.00
71996;BME280;59862;47.732;7.346;2023-12-04T17:36:44;97052.72;;;0.74;100.00
71996;BME280;59862;47.732;7.346;2023-12-04T17:39:12;97041.41;;;0.78;100.00
71996;BME280;59862;47.732;7.346;2023-12-04T17:41:41;97038.84;;;0.72;100.00
71996;BME280;59862;47.732;7.346;2023-12-04T17:44:08;97039.52;;;0.74;100.00
71996;BME280;59862;47.732;7.346;2023-12-04T17:46:36;97034.60;;;0.75;100.00
71996;BME280;59862;47.732;7.346;2023-12-04T17:49:03;97037.19;;;0.71;100.00
71996;BME280;59862;47.732;7.346;2023-12-04T17:51:31;97046.17;;;0.78;100.00
71996;BME280;59862;47.732;7.346;2023-12-04T17:53:58;97052.20;;;0.70;100.00
71996;BME280;59862;47.732;7.346;2023-12-04T17:56:26;97047.64;;;0.76;100.00
71996;BME280;59862;47.732;7.346;2023-12-04T17:58:53;97048.77;;;0.74;100.00
71996;BME280;59862;47.732;7.346;2023-12-04T18:01:21;97056.88;;;0.76;100.00
71996;BME280;59862;47.732;7.346;2023-12-04T18:03:48;97048.81;;;0.78;100.00
71996;BME280;59862;47.732;7.346;2023-12-04T18:06:24;97039.69;;;0.86;100.00
71996;BME280;59862;47.732;7.346;2023-12-04T18:08:44;97045.49;;;0.90;100.00
71996;BME280;59862;47.732;7.346;2023-12-04T18:11:12;97042.42;;;0.94;100.00
71996;BME280;59862;47.732;7.346;2023-12-04T18:13:39;97042.38;;;0.90;100.00
71996;BME280;59862;47.732;7.346;2023-12-04T18:16:08;97049.22;;;0.97;100.00
71996;BME280;59862;47.732;7.346;2023-12-04T18:18:35;97045.78;;;1.00;100.00
71996;BME280;59862;47.732;7.346;2023-12-04T18:21:05;97042.45;;;0.98;100.00
71996;BME280;59862;47.732;7.346;2023-12-04T18:23:32;97045.50;;;1.03;100.00
71996;BME280;59862;47.732;7.346;2023-12-04T18:26:00;97052.14;;;1.07;100.00
71996;BME280;59862;47.732;7.346;2023-12-04T18:28:28;97046.90;;;1.11;100.00
71996;BME280;59862;47.732;7.346;2023-12-04T18:30:56;97036.66;;;1.08;100.00
71996;BME280;59862;47.732;7.346;2023-12-04T18:33:24;97048.09;;;0.99;100.00
71996;BME280;59862;47.732;7.346;2023-12-04T18:35:53;97052.50;;;1.08;100.00
71996;BME280;59862;47.732;7.346;2023-12-04T18:38:24;97038.85;;;0.99;100.00
71996;BME280;59862;47.732;7.346;2023-12-04T18:40:52;97035.22;;;1.00;100.00
71996;BME280;59862;47.732;7.346;2023-12-04T18:43:20;97033.61;;;1.03;100.00
71996;BME280;59862;47.732;7.346;2023-12-04T18:45:48;97022.33;;;0.97;100.00
71996;BME280;59862;47.732;7.346;2023-12-04T18:48:19;97029.85;;;0.92;100.00
71996;BME280;59862;47.732;7.346;2023-12-04T18:50:47;97036.41;;;0.88;100.00
71996;BME280;59862;47.732;7.346;2023-12-04T18:53:16;97039.09;;;0.92;100.00
71996;BME280;59862;47.732;7.346;2023-12-04T18:55:45;97027.89;;;0.94;100.00
71996;BME280;59862;47.732;7.346;2023-12-04T18:58:12;97037.09;;;0.90;100.00
71996;BME280;59862;47.732;7.346;2023-12-04T19:00:40;97035.49;;;0.93;100.00
71996;BME280;59862;47.732;7.346;2023-12-04T19:03:08;97024.53;;;0.88;100.00
71996;BME280;59862;47.732;7.346;2023-12-04T19:05:36;97023.93;;;0.94;100.00
71996;BME280;59862;47.732;7.346;2023-12-04T19:08:03;97021.64;;;0.95;100.00
71996;BME280;59862;47.732;7.346;2023-12-04T19:10:32;97010.64;;;0.86;100.00
71996;BME280;59862;47.732;7.346;2023-12-04T19:13:00;97023.61;;;0.93;100.00
71996;BME280;59862;47.732;7.346;2023-12-04T19:15:27;97005.56;;;0.89;100.00
71996;BME280;59862;47.732;7.346;2023-12-04T19:17:56;97008.38;;;0.91;100.00
71996;BME280;59862;47.732;7.346;2023-12-04T19:20:24;96995.23;;;0.95;100.00
71996;BME280;59862;47.732;7.346;2023-12-04T19:22:53;97001.04;;;0.99;100.00
71996;BME280;59862;47.732;7.346;2023-12-04T19:25:21;96990.63;;;0.97;100.00
71996;BME280;59862;47.732;7.346;2023-12-04T19:27:51;96991.00;;;1.02;100.00
71996;BME280;59862;47.732;7.346;2023-12-04T19:30:18;96992.59;;;0.95;100.00
71996;BME280;59862;47.732;7.346;2023-12-04T19:32:46;96997.28;;;1.01;100.00
71996;BME280;59862;47.732;7.346;2023-12-04T19:35:15;96993.20;;;1.07;100.00
71996;BME280;59862;47.732;7.346;2023-12-04T19:37:43;97003.12;;;1.09;100.00
71996;BME280;59862;47.732;7.346;2023-12-04T19:40:12;97007.40;;;1.06;100.00
71996;BME280;59862;47.732;7.346;2023-12-04T19:42:40;97008.60;;;1.11;100.00
71996;BME280;59862;47.732;7.346;2023-12-04T19:45:12;97002.48;;;1.11;100.00
71996;BME280;59862;47.732;7.346;2023-12-04T19:47:39;97003.71;;;1.16;100.00
71996;BME280;59862;47.732;7.346;2023-12-04T19:50:07;97005.28;;;1.09;100.00
71996;BME280;59862;47.732;7.346;2023-12-04T19:52:38;97005.31;;;1.13;100.00
71996;BME280;59862;47.732;7.346;2023-12-04T19:55:06;96998.03;;;1.11;100.00
71996;BME280;59862;47.732;7.346;2023-12-04T19:57:34;97001.06;;;1.16;100.00
71996;BME280;59862;47.732;7.346;2023-12-04T20:00:02;96998.35;;;1.08;100.00
71996;BME280;59862;47.732;7.346;2023-12-04T20:02:31;97002.24;;;1.04;100.00
71996;BME280;59862;47.732;7.346;2023-12-04T20:05:01;97003.23;;;1.03;100.00
71996;BME280;59862;47.732;7.346;2023-12-04T20:07:29;97003.31;;;1.11;100.00
71996;BME280;59862;47.732;7.346;2023-12-04T20:09:56;96999.35;;;1.11;100.00
71996;BME280;59862;47.732;7.346;2023-12-04T20:12:24;97001.60;;;1.06;100.00
71996;BME280;59862;47.732;7.346;2023-12-04T20:14:51;96998.96;;;1.06;100.00
71996;BME280;59862;47.732;7.346;2023-12-04T20:17:19;97000.46;;;1.22;100.00
71996;BME280;59862;47.732;7.346;2023-12-04T20:19:46;96993.82;;;1.18;100.00
71996;BME280;59862;47.732;7.346;2023-12-04T20:22:14;97004.78;;;1.23;100.00
71996;BME280;59862;47.732;7.346;2023-12-04T20:24:43;96994.89;;;1.25;100.00
71996;BME280;59862;47.732;7.346;2023-12-04T20:27:12;96988.31;;;1.29;100.00
71996;BME280;59862;47.732;7.346;2023-12-04T20:29:40;96997.63;;;1.37;100.00
71996;BME280;59862;47.732;7.346;2023-12-04T20:32:08;96993.95;;;1.34;100.00
71996;BME280;59862;47.732;7.346;2023-12-04T20:34:37;96995.67;;;1.39;100.00
71996;BME280;59862;47.732;7.346;2023-12-04T20:37:06;96993.92;;;1.30;100.00
71996;BME280;59862;47.732;7.346;2023-12-04T20:39:33;96987.54;;;1.19;100.00
71996;BME280;59862;47.732;7.346;2023-12-04T20:42:03;96981.16;;;1.26;100.00
71996;BME280;59862;47.732;7.346;2023-12-04T20:44:30;96980.52;;;1.28;100.00
71996;BME280;59862;47.732;7.346;2023-12-04T20:46:59;96977.75;;;1.29;100.00
71996;BME280;59862;47.732;7.346;2023-12-04T20:49:26;96979.42;;;1.34;100.00
71996;BME280;59862;47.732;7.346;2023-12-04T20:51:54;96978.94;;;1.35;100.00
71996;BME280;59862;47.732;7.346;2023-12-04T20:54:21;96982.55;;;1.30;100.00
71996;BME280;59862;47.732;7.346;2023-12-04T20:56:48;96972.50;;;1.33;100.00
71996;BME280;59862;47.732;7.346;2023-12-04T20:59:16;96972.59;;;1.28;100.00
71996;BME280;59862;47.732;7.346;2023-12-04T21:01:43;96969.69;;;1.35;100.00
71996;BME280;59862;47.732;7.346;2023-12-04T21:04:11;96977.49;;;1.36;100.00
71996;BME280;59862;47.732;7.346;2023-12-04T21:06:39;96972.95;;;1.46;100.00
71996;BME280;59862;47.732;7.346;2023-12-04T21:09:06;96978.88;;;1.44;100.00
71996;BME280;59862;47.732;7.346;2023-12-04T21:11:35;96976.59;;;1.49;100.00
71996;BME280;59862;47.732;7.346;2023-12-04T21:14:02;96972.56;;;1.41;100.00
71996;BME280;59862;47.732;7.346;2023-12-04T21:16:30;96969.36;;;1.51;100.00
71996;BME280;59862;47.732;7.346;2023-12-04T21:18:57;96971.30;;;1.49;100.00
71996;BME280;59862;47.732;7.346;2023-12-04T21:21:25;96970.33;;;1.50;100.00
71996;BME280;59862;47.732;7.346;2023-12-04T21:23:52;96974.03;;;1.58;100.00
71996;BME280;59862;47.732;7.346;2023-12-04T21:26:20;96972.41;;;1.65;100.00
71996;BME280;59862;47.732;7.346;2023-12-04T21:28:48;96972.12;;;1.68;100.00
71996;BME280;59862;47.732;7.346;2023-12-04T21:31:16;96969.85;;;1.73;100.00
71996;BME280;59862;47.732;7.346;2023-12-04T21:33:43;96973.17;;;1.75;100.00
71996;BME280;59862;47.732;7.346;2023-12-04T21:36:11;96978.73;;;1.68;100.00
71996;BME280;59862;47.732;7.346;2023-12-04T21:38:38;96975.77;;;1.67;100.00
71996;BME280;59862;47.732;7.346;2023-12-04T21:41:06;96980.48;;;1.59;100.00
71996;BME280;59862;47.732;7.346;2023-12-04T21:43:33;96992.38;;;1.59;100.00
71996;BME280;59862;47.732;7.346;2023-12-04T21:46:01;96994.40;;;1.65;100.00
71996;BME280;59862;47.732;7.346;2023-12-04T21:48:28;96999.91;;;1.72;100.00
71996;BME280;59862;47.732;7.346;2023-12-04T21:50:56;97000.45;;;1.75;100.00
71996;BME280;59862;47.732;7.346;2023-12-04T21:53:23;97002.45;;;1.77;100.00
71996;BME280;59862;47.732;7.346;2023-12-04T21:55:51;97002.72;;;1.70;100.00
71996;BME280;59862;47.732;7.346;2023-12-04T21:58:18;97005.09;;;1.77;100.00
71996;BME280;59862;47.732;7.346;2023-12-04T22:00:45;97000.00;;;1.80;100.00
71996;BME280;59862;47.732;7.346;2023-12-04T22:03:13;96997.70;;;1.85;100.00
71996;BME280;59862;47.732;7.346;2023-12-04T22:05:41;96998.94;;;1.94;100.00
71996;BME280;59862;47.732;7.346;2023-12-04T22:08:08;97004.06;;;1.96;100.00
71996;BME280;59862;47.732;7.346;2023-12-04T22:10:36;97001.42;;;1.96;100.00
71996;BME280;59862;47.732;7.346;2023-12-04T22:13:03;96997.45;;;1.96;100.00
71996;BME280;59862;47.732;7.346;2023-12-04T22:15:31;97007.84;;;1.93;100.00
71996;BME280;59862;47.732;7.346;2023-12-04T22:17:59;97006.90;;;1.98;100.00
71996;BME280;59862;47.732;7.346;2023-12-04T22:20:27;96999.23;;;1.91;100.00
71996;BME280;59862;47.732;7.346;2023-12-04T22:22:55;97002.42;;;1.95;100.00
71996;BME280;59862;47.732;7.346;2023-12-04T22:25:23;96997.75;;;1.93;100.00
71996;BME280;59862;47.732;7.346;2023-12-04T22:27:50;97005.41;;;2.00;100.00
71996;BME280;59862;47.732;7.346;2023-12-04T22:30:18;97006.44;;;2.03;100.00
71996;BME280;59862;47.732;7.346;2023-12-04T22:32:45;97010.94;;;2.10;100.00
71996;BME280;59862;47.732;7.346;2023-12-04T22:35:13;97008.48;;;2.13;100.00
71996;BME280;59862;47.732;7.346;2023-12-04T22:37:40;97011.80;;;2.15;100.00
71996;BME280;59862;47.732;7.346;2023-12-04T22:40:08;97013.94;;;2.11;100.00
71996;BME280;59862;47.732;7.346;2023-12-04T22:42:35;97017.25;;;2.13;100.00
71996;BME280;59862;47.732;7.346;2023-12-04T22:45:03;97012.17;;;2.20;100.00
71996;BME280;59862;47.732;7.346;2023-12-04T22:47:31;97013.02;;;2.20;100.00
71996;BME280;59862;47.732;7.346;2023-12-04T22:49:59;97014.09;;;2.36;100.00
71996;BME280;59862;47.732;7.346;2023-12-04T22:52:26;97017.59;;;2.40;100.00
71996;BME280;59862;47.732;7.346;2023-12-04T22:54:54;97014.41;;;2.37;100.00
71996;BME280;59862;47.732;7.346;2023-12-04T22:57:21;97015.63;;;2.42;100.00
71996;BME280;59862;47.732;7.346;2023-12-04T22:59:48;97017.08;;;2.41;100.00
71996;BME280;59862;47.732;7.346;2023-12-04T23:02:16;97019.58;;;2.38;100.00
71996;BME280;59862;47.732;7.346;2023-12-04T23:04:43;97021.38;;;2.38;100.00
71996;BME280;59862;47.732;7.346;2023-12-04T23:07:11;97024.37;;;2.43;100.00
71996;BME280;59862;47.732;7.346;2023-12-04T23:09:38;97026.53;;;2.43;100.00
71996;BME280;59862;47.732;7.346;2023-12-04T23:12:06;97036.02;;;2.54;100.00
71996;BME280;59862;47.732;7.346;2023-12-04T23:14:33;97036.00;;;2.50;100.00
71996;BME280;59862;47.732;7.346;2023-12-04T23:17:01;97033.35;;;2.50;100.00
71996;BME280;59862;47.732;7.346;2023-12-04T23:19:28;97037.58;;;2.39;100.00
71996;BME280;59862;47.732;7.346;2023-12-04T23:21:56;97037.81;;;2.49;100.00
71996;BME280;59862;47.732;7.346;2023-12-04T23:24:24;97037.70;;;2.59;100.00
71996;BME280;59862;47.732;7.346;2023-12-04T23:26:51;97040.00;;;2.83;100.00
71996;BME280;59862;47.732;7.346;2023-12-04T23:29:18;97037.06;;;2.94;100.00
71996;BME280;59862;47.732;7.346;2023-12-04T23:31:46;97045.05;;;3.06;100.00
71996;BME280;59862;47.732;7.346;2023-12-04T23:34:13;97040.77;;;3.14;100.00
71996;BME280;59862;47.732;7.346;2023-12-04T23:36:41;97041.75;;;3.13;100.00
71996;BME280;59862;47.732;7.346;2023-12-04T23:39:08;97041.08;;;3.11;100.00
71996;BME280;59862;47.732;7.346;2023-12-04T23:41:36;97040.41;;;3.08;100.00
71996;BME280;59862;47.732;7.346;2023-12-04T23:44:04;97035.31;;;3.19;100.00
71996;BME280;59862;47.732;7.346;2023-12-04T23:46:31;97045.60;;;3.22;100.00
71996;BME280;59862;47.732;7.346;2023-12-04T23:48:59;97048.20;;;3.14;100.00
71996;BME280;59862;47.732;7.346;2023-12-04T23:51:26;97040.77;;;3.10;100.00
71996;BME280;59862;47.732;7.346;2023-12-04T23:53:54;97035.59;;;3.04;100.00
71996;BME280;59862;47.732;7.346;2023-12-04T23:56:21;97035.50;;;3.26;100.00
71996;BME280;59862;47.732;7.346;2023-12-04T23:58:48;97029.84;;;3.21;100.00
